sensor_id;sensor_type;location;lat;lon;timestamp;P1;durP1;ratioP1;P2;durP2;ratioP2
6667;SDS011;3370;47.712;9.082;2022-11-02T00:00:28;7.57;;;3.20;;
6667;SDS011;3370;47.712;9.082;2022-11-02T00:02:54;5.30;;;2.37;;
6667;SDS011;3370;47.712;9.082;2022-11-02T00:05:20;8.90;;;3.03;;
6667;SDS011;3370;47.712;9.082;2022-11-02T00:07:53;3.20;;;2.73;;
6667;SDS011;3370;47.712;9.082;2022-11-02T00:10:20;3.07;;;2.83;;
6667;SDS011;3370;47.712;9.082;2022-11-02T00:12:47;5.13;;;3.63;;
6667;SDS011;3370;47.712;9.082;2022-11-02T00:15:14;6.67;;;3.80;;
6667;SDS011;3370;47.712;9.082;2022-11-02T00:17:41;3.50;;;3.20;;
6667;SDS011;3370;47.712;9.082;2022-11-02T00:20:12;4.20;;;3.80;;
6667;SDS011;3370;47.712;9.082;2022-11-02T00:22:41;6.23;;;3.20;;
6667;SDS011;3370;47.712;9.082;2022-11-02T00:25:08;6.53;;;3.40;;
6667;SDS011;3370;47.712;9.082;2022-11-02T00:27:39;4.53;;;3.50;;
6667;SDS011;3370;47.712;9.082;2022-11-02T00:30:06;5.67;;;3.47;;
6667;SDS011;3370;47.712;9.082;2022-11-02T00:32:33;10.00;;;3.30;;
6667;SDS011;3370;47.712;9.082;2022-11-02T00:34:59;4.83;;;3.33;;
6667;SDS011;3370;47.712;9.082;2022-11-02T00:37:25;4.67;;;3.47;;
6667;SDS011;3370;47.712;9.082;2022-11-02T00:39:51;7.00;;;3.40;;
6667;SDS011;3370;47.712;9.082;2022-11-02T00:42:16;12.43;;;4.00;;
6667;SDS011;3370;47.712;9.082;2022-11-02T00:44:43;5.80;;;3.70;;
6667;SDS011;3370;47.712;9.082;2022-11-02T00:47:08;3.90;;;3.50;;
6667;SDS011;3370;47.712;9.082;2022-11-02T00:49:35;8.13;;;3.50;;
6667;SDS011;3370;47.712;9.082;2022-11-02T00:52:02;6.17;;;3.73;;
6667;SDS011;3370;47.712;9.082;2022-11-02T00:54:29;8.90;;;3.53;;
6667;SDS011;3370;47.712;9.082;2022-11-02T00:56:55;3.87;;;3.10;;
6667;SDS011;3370;47.712;9.082;2022-11-02T00:59:21;7.13;;;3.67;;
6667;SDS011;3370;47.712;9.082;2022-11-02T01:01:46;5.37;;;3.00;;
6667;SDS011;3370;47.712;9.082;2022-11-02T01:04:14;5.53;;;2.97;;
6667;SDS011;3370;47.712;9.082;2022-11-02T01:06:41;10.70;;;3.60;;
6667;SDS011;3370;47.712;9.082;2022-11-02T01:09:09;5.83;;;3.60;;
6667;SDS011;3370;47.712;9.082;2022-11-02T01:11:37;8.40;;;3.70;;
6667;SDS011;3370;47.712;9.082;2022-11-02T01:14:05;4.10;;;2.90;;
6667;SDS011;3370;47.712;9.082;2022-11-02T01:16:32;3.53;;;3.23;;
6667;SDS011;3370;47.712;9.082;2022-11-02T01:18:58;7.00;;;3.20;;
6667;SDS011;3370;47.712;9.082;2022-11-02T01:21:24;7.53;;;3.00;;
6667;SDS011;3370;47.712;9.082;2022-11-02T01:23:51;7.20;;;2.97;;
6667;SDS011;3370;47.712;9.082;2022-11-02T01:26:17;3.17;;;2.90;;
6667;SDS011;3370;47.712;9.082;2022-11-02T01:28:43;10.07;;;3.70;;
6667;SDS011;3370;47.712;9.082;2022-11-02T01:31:09;9.90;;;3.27;;
6667;SDS011;3370;47.712;9.082;2022-11-02T01:33:36;8.13;;;3.33;;
6667;SDS011;3370;47.712;9.082;2022-11-02T01:36:07;5.10;;;3.17;;
6667;SDS011;3370;47.712;9.082;2022-11-02T01:38:33;3.13;;;2.93;;
6667;SDS011;3370;47.712;9.082;2022-11-02T01:40:59;3.60;;;3.00;;
6667;SDS011;3370;47.712;9.082;2022-11-02T01:48:46;5.43;;;3.70;;
6667;SDS011;3370;47.712;9.082;2022-11-02T01:51:26;3.97;;;3.10;;
6667;SDS011;3370;47.712;9.082;2022-11-02T01:54:06;8.27;;;3.00;;
6667;SDS011;3370;47.712;9.082;2022-11-02T01:56:38;3.73;;;3.20;;
6667;SDS011;3370;47.712;9.082;2022-11-02T01:59:08;5.93;;;3.40;;
6667;SDS011;3370;47.712;9.082;2022-11-02T02:01:40;5.43;;;2.73;;
6667;SDS011;3370;47.712;9.082;2022-11-02T02:04:06;6.30;;;3.30;;
6667;SDS011;3370;47.712;9.082;2022-11-02T02:06:33;3.80;;;3.40;;
6667;SDS011;3370;47.712;9.082;2022-11-02T02:09:00;6.63;;;2.70;;
6667;SDS011;3370;47.712;9.082;2022-11-02T02:11:32;5.60;;;3.60;;
6667;SDS011;3370;47.712;9.082;2022-11-02T02:14:08;3.23;;;3.00;;
6667;SDS011;3370;47.712;9.082;2022-11-02T02:28:55;5.00;;;2.90;;
6667;SDS011;3370;47.712;9.082;2022-11-02T02:31:39;4.67;;;3.00;;
6667;SDS011;3370;47.712;9.082;2022-11-02T02:37:06;5.47;;;2.80;;
6667;SDS011;3370;47.712;9.082;2022-11-02T02:48:21;3.93;;;3.00;;
6667;SDS011;3370;47.712;9.082;2022-11-02T02:50:53;8.03;;;3.00;;
6667;SDS011;3370;47.712;9.082;2022-11-02T02:53:45;3.20;;;2.90;;
6667;SDS011;3370;47.712;9.082;2022-11-02T02:56:15;2.57;;;2.37;;
6667;SDS011;3370;47.712;9.082;2022-11-02T02:59:05;4.13;;;3.27;;
6667;SDS011;3370;47.712;9.082;2022-11-02T03:01:40;10.43;;;2.70;;
6667;SDS011;3370;47.712;9.082;2022-11-02T03:04:11;5.87;;;2.83;;
6667;SDS011;3370;47.712;9.082;2022-11-02T03:06:37;3.07;;;2.57;;
6667;SDS011;3370;47.712;9.082;2022-11-02T03:09:10;7.10;;;3.20;;
6667;SDS011;3370;47.712;9.082;2022-11-02T03:26:03;4.00;;;3.10;;
6667;SDS011;3370;47.712;9.082;2022-11-02T03:31:33;4.67;;;2.70;;
6667;SDS011;3370;47.712;9.082;2022-11-02T03:36:50;8.23;;;3.20;;
6667;SDS011;3370;47.712;9.082;2022-11-02T03:39:23;8.53;;;2.90;;
6667;SDS011;3370;47.712;9.082;2022-11-02T03:42:06;4.57;;;3.03;;
6667;SDS011;3370;47.712;9.082;2022-11-02T03:44:38;2.83;;;2.57;;
6667;SDS011;3370;47.712;9.082;2022-11-02T03:47:06;3.87;;;2.63;;
6667;SDS011;3370;47.712;9.082;2022-11-02T03:49:37;6.30;;;3.00;;
6667;SDS011;3370;47.712;9.082;2022-11-02T03:52:07;4.10;;;3.10;;
6667;SDS011;3370;47.712;9.082;2022-11-02T03:54:50;3.10;;;2.80;;
6667;SDS011;3370;47.712;9.082;2022-11-02T03:57:48;6.50;;;2.83;;
6667;SDS011;3370;47.712;9.082;2022-11-02T04:00:17;6.07;;;3.10;;
6667;SDS011;3370;47.712;9.082;2022-11-02T04:02:50;2.67;;;2.47;;
6667;SDS011;3370;47.712;9.082;2022-11-02T04:05:30;3.70;;;3.10;;
6667;SDS011;3370;47.712;9.082;2022-11-02T04:07:59;3.90;;;3.03;;
6667;SDS011;3370;47.712;9.082;2022-11-02T04:10:45;4.90;;;3.17;;
6667;SDS011;3370;47.712;9.082;2022-11-02T04:13:30;7.57;;;3.00;;
6667;SDS011;3370;47.712;9.082;2022-11-02T04:16:15;8.17;;;3.73;;
6667;SDS011;3370;47.712;9.082;2022-11-02T04:18:41;4.17;;;2.90;;
6667;SDS011;3370;47.712;9.082;2022-11-02T04:21:26;3.93;;;2.80;;
6667;SDS011;3370;47.712;9.082;2022-11-02T04:23:53;6.17;;;3.33;;
6667;SDS011;3370;47.712;9.082;2022-11-02T04:26:37;8.90;;;2.80;;
6667;SDS011;3370;47.712;9.082;2022-11-02T04:29:03;7.50;;;2.47;;
6667;SDS011;3370;47.712;9.082;2022-11-02T04:31:29;3.30;;;2.67;;
6667;SDS011;3370;47.712;9.082;2022-11-02T04:33:55;4.53;;;2.73;;
6667;SDS011;3370;47.712;9.082;2022-11-02T04:36:24;2.67;;;2.27;;
6667;SDS011;3370;47.712;9.082;2022-11-02T04:38:52;3.53;;;2.77;;
6667;SDS011;3370;47.712;9.082;2022-11-02T04:41:19;4.37;;;2.77;;
6667;SDS011;3370;47.712;9.082;2022-11-02T04:44:05;2.60;;;2.40;;
6667;SDS011;3370;47.712;9.082;2022-11-02T04:46:37;5.50;;;2.30;;
6667;SDS011;3370;47.712;9.082;2022-11-02T04:49:04;5.90;;;2.97;;
6667;SDS011;3370;47.712;9.082;2022-11-02T04:51:31;4.90;;;2.80;;
6667;SDS011;3370;47.712;9.082;2022-11-02T04:53:58;4.13;;;2.90;;
6667;SDS011;3370;47.712;9.082;2022-11-02T04:56:24;8.03;;;2.93;;
6667;SDS011;3370;47.712;9.082;2022-11-02T04:58:55;7.53;;;3.07;;
6667;SDS011;3370;47.712;9.082;2022-11-02T05:01:23;7.70;;;3.20;;
6667;SDS011;3370;47.712;9.082;2022-11-02T05:03:53;4.83;;;2.67;;
6667;SDS011;3370;47.712;9.082;2022-11-02T05:06:20;3.30;;;2.67;;
6667;SDS011;3370;47.712;9.082;2022-11-02T05:08:47;6.83;;;3.10;;
6667;SDS011;3370;47.712;9.082;2022-11-02T05:11:13;11.13;;;3.07;;
6667;SDS011;3370;47.712;9.082;2022-11-02T05:13:40;4.60;;;2.97;;
6667;SDS011;3370;47.712;9.082;2022-11-02T05:16:08;7.10;;;3.70;;
6667;SDS011;3370;47.712;9.082;2022-11-02T05:18:37;6.43;;;3.10;;
6667;SDS011;3370;47.712;9.082;2022-11-02T05:21:03;5.57;;;2.77;;
6667;SDS011;3370;47.712;9.082;2022-11-02T05:23:29;3.67;;;2.57;;
6667;SDS011;3370;47.712;9.082;2022-11-02T05:28:27;7.00;;;3.00;;
6667;SDS011;3370;47.712;9.082;2022-11-02T05:30:54;7.63;;;3.63;;
6667;SDS011;3370;47.712;9.082;2022-11-02T05:33:23;4.20;;;2.83;;
6667;SDS011;3370;47.712;9.082;2022-11-02T05:35:49;3.90;;;2.80;;
6667;SDS011;3370;47.712;9.082;2022-11-02T05:38:15;3.87;;;2.70;;
6667;SDS011;3370;47.712;9.082;2022-11-02T05:40:41;10.43;;;3.90;;
6667;SDS011;3370;47.712;9.082;2022-11-02T05:43:07;7.80;;;2.67;;
6667;SDS011;3370;47.712;9.082;2022-11-02T05:45:34;6.20;;;2.80;;
6667;SDS011;3370;47.712;9.082;2022-11-02T05:48:01;4.13;;;2.27;;
6667;SDS011;3370;47.712;9.082;2022-11-02T05:50:30;5.53;;;3.20;;
6667;SDS011;3370;47.712;9.082;2022-11-02T05:52:57;4.07;;;2.60;;
6667;SDS011;3370;47.712;9.082;2022-11-02T05:55:22;5.47;;;2.80;;
6667;SDS011;3370;47.712;9.082;2022-11-02T05:57:52;5.20;;;2.57;;
6667;SDS011;3370;47.712;9.082;2022-11-02T06:00:19;6.77;;;3.40;;
6667;SDS011;3370;47.712;9.082;2022-11-02T06:02:47;7.50;;;2.97;;
6667;SDS011;3370;47.712;9.082;2022-11-02T06:05:14;8.33;;;2.70;;
6667;SDS011;3370;47.712;9.082;2022-11-02T06:07:39;7.80;;;2.77;;
6667;SDS011;3370;47.712;9.082;2022-11-02T06:10:05;8.73;;;3.20;;
6667;SDS011;3370;47.712;9.082;2022-11-02T06:12:32;3.10;;;2.47;;
6667;SDS011;3370;47.712;9.082;2022-11-02T06:14:58;10.70;;;2.70;;
6667;SDS011;3370;47.712;9.082;2022-11-02T06:17:24;7.40;;;3.17;;
6667;SDS011;3370;47.712;9.082;2022-11-02T06:19:50;7.20;;;2.50;;
6667;SDS011;3370;47.712;9.082;2022-11-02T06:22:16;2.83;;;2.63;;
6667;SDS011;3370;47.712;9.082;2022-11-02T06:24:42;5.67;;;3.10;;
6667;SDS011;3370;47.712;9.082;2022-11-02T06:27:07;8.37;;;3.30;;
6667;SDS011;3370;47.712;9.082;2022-11-02T06:29:34;10.57;;;2.57;;
6667;SDS011;3370;47.712;9.082;2022-11-02T06:32:00;5.40;;;2.47;;
6667;SDS011;3370;47.712;9.082;2022-11-02T06:34:25;7.73;;;3.30;;
6667;SDS011;3370;47.712;9.082;2022-11-02T06:36:51;12.20;;;2.37;;
6667;SDS011;3370;47.712;9.082;2022-11-02T06:39:17;12.17;;;2.70;;
6667;SDS011;3370;47.712;9.082;2022-11-02T06:41:43;3.73;;;2.20;;
6667;SDS011;3370;47.712;9.082;2022-11-02T06:44:09;2.87;;;2.67;;
6667;SDS011;3370;47.712;9.082;2022-11-02T06:46:35;4.20;;;3.73;;
6667;SDS011;3370;47.712;9.082;2022-11-02T06:49:01;14.73;;;2.77;;
6667;SDS011;3370;47.712;9.082;2022-11-02T06:51:27;3.37;;;2.80;;
6667;SDS011;3370;47.712;9.082;2022-11-02T06:53:52;2.80;;;2.20;;
6667;SDS011;3370;47.712;9.082;2022-11-02T06:56:18;5.30;;;2.60;;
6667;SDS011;3370;47.712;9.082;2022-11-02T06:58:44;7.53;;;3.30;;
6667;SDS011;3370;47.712;9.082;2022-11-02T07:01:10;7.97;;;2.70;;
6667;SDS011;3370;47.712;9.082;2022-11-02T07:03:37;5.07;;;2.27;;
6667;SDS011;3370;47.712;9.082;2022-11-02T07:06:03;7.40;;;2.97;;
6667;SDS011;3370;47.712;9.082;2022-11-02T07:08:29;5.10;;;2.67;;
6667;SDS011;3370;47.712;9.082;2022-11-02T07:10:54;5.13;;;2.70;;
6667;SDS011;3370;47.712;9.082;2022-11-02T07:13:21;7.10;;;2.97;;
6667;SDS011;3370;47.712;9.082;2022-11-02T07:15:49;7.07;;;2.53;;
6667;SDS011;3370;47.712;9.082;2022-11-02T07:18:17;7.00;;;3.00;;
6667;SDS011;3370;47.712;9.082;2022-11-02T07:20:43;3.00;;;2.70;;
6667;SDS011;3370;47.712;9.082;2022-11-02T07:23:09;9.03;;;3.00;;
6667;SDS011;3370;47.712;9.082;2022-11-02T07:25:35;8.90;;;3.03;;
6667;SDS011;3370;47.712;9.082;2022-11-02T07:28:00;10.40;;;2.87;;
6667;SDS011;3370;47.712;9.082;2022-11-02T07:30:27;10.50;;;3.93;;
6667;SDS011;3370;47.712;9.082;2022-11-02T07:32:54;7.10;;;3.80;;
6667;SDS011;3370;47.712;9.082;2022-11-02T07:35:20;5.50;;;3.30;;
6667;SDS011;3370;47.712;9.082;2022-11-02T07:37:59;4.80;;;3.00;;
6667;SDS011;3370;47.712;9.082;2022-11-02T07:40:28;4.30;;;3.00;;
6667;SDS011;3370;47.712;9.082;2022-11-02T07:42:56;8.47;;;3.03;;
6667;SDS011;3370;47.712;9.082;2022-11-02T07:45:22;6.17;;;2.80;;
6667;SDS011;3370;47.712;9.082;2022-11-02T07:47:49;8.80;;;2.90;;
6667;SDS011;3370;47.712;9.082;2022-11-02T07:50:16;17.47;;;3.77;;
6667;SDS011;3370;47.712;9.082;2022-11-02T07:52:50;5.63;;;3.23;;
6667;SDS011;3370;47.712;9.082;2022-11-02T07:55:25;11.30;;;3.50;;
6667;SDS011;3370;47.712;9.082;2022-11-02T07:57:57;5.63;;;3.10;;
6667;SDS011;3370;47.712;9.082;2022-11-02T08:00:30;7.93;;;3.50;;
6667;SDS011;3370;47.712;9.082;2022-11-02T08:03:00;11.30;;;3.83;;
6667;SDS011;3370;47.712;9.082;2022-11-02T08:05:27;12.47;;;3.67;;
6667;SDS011;3370;47.712;9.082;2022-11-02T08:07:55;3.70;;;3.20;;
6667;SDS011;3370;47.712;9.082;2022-11-02T08:10:25;13.03;;;4.30;;
6667;SDS011;3370;47.712;9.082;2022-11-02T08:12:53;9.73;;;3.30;;
6667;SDS011;3370;47.712;9.082;2022-11-02T08:15:20;9.77;;;3.47;;
6667;SDS011;3370;47.712;9.082;2022-11-02T08:17:46;7.13;;;3.67;;
6667;SDS011;3370;47.712;9.082;2022-11-02T08:20:12;7.47;;;3.43;;
6667;SDS011;3370;47.712;9.082;2022-11-02T08:22:38;14.90;;;3.60;;
6667;SDS011;3370;47.712;9.082;2022-11-02T08:25:05;9.47;;;2.60;;
6667;SDS011;3370;47.712;9.082;2022-11-02T08:27:32;6.07;;;2.40;;
6667;SDS011;3370;47.712;9.082;2022-11-02T08:29:58;7.03;;;2.97;;
6667;SDS011;3370;47.712;9.082;2022-11-02T08:32:24;7.93;;;2.67;;
6667;SDS011;3370;47.712;9.082;2022-11-02T08:34:49;9.10;;;2.90;;
6667;SDS011;3370;47.712;9.082;2022-11-02T08:37:15;8.30;;;2.80;;
6667;SDS011;3370;47.712;9.082;2022-11-02T08:39:41;10.37;;;2.70;;
6667;SDS011;3370;47.712;9.082;2022-11-02T08:42:07;7.50;;;2.97;;
6667;SDS011;3370;47.712;9.082;2022-11-02T08:44:33;10.80;;;2.50;;
6667;SDS011;3370;47.712;9.082;2022-11-02T08:46:58;8.17;;;2.70;;
6667;SDS011;3370;47.712;9.082;2022-11-02T08:49:24;4.30;;;2.50;;
6667;SDS011;3370;47.712;9.082;2022-11-02T08:51:50;9.73;;;2.63;;
6667;SDS011;3370;47.712;9.082;2022-11-02T08:54:16;6.87;;;2.40;;
6667;SDS011;3370;47.712;9.082;2022-11-02T08:56:42;8.93;;;2.60;;
6667;SDS011;3370;47.712;9.082;2022-11-02T08:59:07;2.60;;;2.33;;
6667;SDS011;3370;47.712;9.082;2022-11-02T09:01:33;5.53;;;2.10;;
6667;SDS011;3370;47.712;9.082;2022-11-02T09:03:59;4.70;;;2.03;;
6667;SDS011;3370;47.712;9.082;2022-11-02T09:06:25;4.60;;;1.90;;
6667;SDS011;3370;47.712;9.082;2022-11-02T09:08:51;11.50;;;1.80;;
6667;SDS011;3370;47.712;9.082;2022-11-02T09:11:16;7.40;;;2.60;;
6667;SDS011;3370;47.712;9.082;2022-11-02T09:13:42;11.53;;;2.00;;
6667;SDS011;3370;47.712;9.082;2022-11-02T09:16:08;6.37;;;2.57;;
6667;SDS011;3370;47.712;9.082;2022-11-02T09:18:34;9.67;;;2.40;;
6667;SDS011;3370;47.712;9.082;2022-11-02T09:21:01;9.90;;;2.30;;
6667;SDS011;3370;47.712;9.082;2022-11-02T09:23:29;17.47;;;2.73;;
6667;SDS011;3370;47.712;9.082;2022-11-02T09:25:56;5.60;;;2.03;;
6667;SDS011;3370;47.712;9.082;2022-11-02T09:28:23;7.20;;;2.10;;
6667;SDS011;3370;47.712;9.082;2022-11-02T09:30:49;6.67;;;2.20;;
6667;SDS011;3370;47.712;9.082;2022-11-02T09:33:14;10.97;;;2.13;;
6667;SDS011;3370;47.712;9.082;2022-11-02T09:35:41;8.93;;;2.20;;
6667;SDS011;3370;47.712;9.082;2022-11-02T09:38:10;4.60;;;2.00;;
6667;SDS011;3370;47.712;9.082;2022-11-02T09:40:38;3.23;;;1.50;;
6667;SDS011;3370;47.712;9.082;2022-11-02T09:43:19;9.87;;;2.20;;
6667;SDS011;3370;47.712;9.082;2022-11-02T09:48:45;8.67;;;2.50;;
6667;SDS011;3370;47.712;9.082;2022-11-02T09:51:21;6.53;;;1.80;;
6667;SDS011;3370;47.712;9.082;2022-11-02T09:56:38;6.53;;;3.23;;
6667;SDS011;3370;47.712;9.082;2022-11-02T09:59:13;11.70;;;2.10;;
6667;SDS011;3370;47.712;9.082;2022-11-02T10:04:39;8.10;;;2.10;;
6667;SDS011;3370;47.712;9.082;2022-11-02T10:11:04;4.53;;;1.60;;
6667;SDS011;3370;47.712;9.082;2022-11-02T10:14:09;10.73;;;1.97;;
6667;SDS011;3370;47.712;9.082;2022-11-02T10:19:43;3.80;;;1.70;;
6667;SDS011;3370;47.712;9.082;2022-11-02T10:22:16;6.10;;;2.10;;
6667;SDS011;3370;47.712;9.082;2022-11-02T10:24:43;6.93;;;2.00;;
6667;SDS011;3370;47.712;9.082;2022-11-02T10:27:21;5.80;;;2.10;;
6667;SDS011;3370;47.712;9.082;2022-11-02T10:29:53;14.17;;;2.70;;
6667;SDS011;3370;47.712;9.082;2022-11-02T10:32:28;7.20;;;2.07;;
6667;SDS011;3370;47.712;9.082;2022-11-02T10:34:56;15.67;;;2.47;;
6667;SDS011;3370;47.712;9.082;2022-11-02T10:37:29;4.77;;;2.00;;
6667;SDS011;3370;47.712;9.082;2022-11-02T10:40:41;11.07;;;2.50;;
6667;SDS011;3370;47.712;9.082;2022-11-02T10:46:39;9.63;;;2.10;;
6667;SDS011;3370;47.712;9.082;2022-11-02T10:52:05;6.53;;;2.10;;
6667;SDS011;3370;47.712;9.082;2022-11-02T10:54:37;8.50;;;2.00;;
6667;SDS011;3370;47.712;9.082;2022-11-02T10:57:12;7.30;;;2.50;;
6667;SDS011;3370;47.712;9.082;2022-11-02T10:59:42;6.60;;;2.07;;
6667;SDS011;3370;47.712;9.082;2022-11-02T11:02:11;7.80;;;2.50;;
6667;SDS011;3370;47.712;9.082;2022-11-02T11:04:39;6.20;;;1.87;;
6667;SDS011;3370;47.712;9.082;2022-11-02T11:07:13;6.03;;;2.63;;
6667;SDS011;3370;47.712;9.082;2022-11-02T11:09:50;5.73;;;1.93;;
6667;SDS011;3370;47.712;9.082;2022-11-02T11:12:31;8.23;;;1.90;;
6667;SDS011;3370;47.712;9.082;2022-11-02T11:15:02;9.00;;;1.97;;
6667;SDS011;3370;47.712;9.082;2022-11-02T11:17:36;7.83;;;2.03;;
6667;SDS011;3370;47.712;9.082;2022-11-02T11:26:00;9.77;;;2.00;;
6667;SDS011;3370;47.712;9.082;2022-11-02T11:28:30;5.80;;;1.57;;
6667;SDS011;3370;47.712;9.082;2022-11-02T11:31:11;11.77;;;2.37;;
6667;SDS011;3370;47.712;9.082;2022-11-02T11:33:56;8.90;;;2.10;;
6667;SDS011;3370;47.712;9.082;2022-11-02T11:36:25;5.43;;;2.00;;
6667;SDS011;3370;47.712;9.082;2022-11-02T11:38:56;7.43;;;2.30;;
6667;SDS011;3370;47.712;9.082;2022-11-02T11:41:28;7.20;;;2.73;;
6667;SDS011;3370;47.712;9.082;2022-11-02T11:43:57;15.47;;;2.30;;
6667;SDS011;3370;47.712;9.082;2022-11-02T11:46:37;17.47;;;4.53;;
6667;SDS011;3370;47.712;9.082;2022-11-02T11:49:19;6.27;;;2.10;;
6667;SDS011;3370;47.712;9.082;2022-11-02T11:51:58;10.53;;;2.27;;
6667;SDS011;3370;47.712;9.082;2022-11-02T11:54:26;10.53;;;2.40;;
6667;SDS011;3370;47.712;9.082;2022-11-02T11:57:42;6.30;;;1.80;;
6667;SDS011;3370;47.712;9.082;2022-11-02T12:00:45;12.87;;;2.20;;
6667;SDS011;3370;47.712;9.082;2022-11-02T12:03:05;11.73;;;2.63;;
6667;SDS011;3370;47.712;9.082;2022-11-02T12:14:15;7.37;;;2.17;;
6667;SDS011;3370;47.712;9.082;2022-11-02T12:23:18;6.10;;;1.80;;
6667;SDS011;3370;47.712;9.082;2022-11-02T12:25:56;8.30;;;1.77;;
6667;SDS011;3370;47.712;9.082;2022-11-02T12:32:06;7.00;;;1.50;;
6667;SDS011;3370;47.712;9.082;2022-11-02T12:35:04;4.80;;;2.60;;
6667;SDS011;3370;47.712;9.082;2022-11-02T12:37:46;14.13;;;2.40;;
6667;SDS011;3370;47.712;9.082;2022-11-02T12:43:45;4.33;;;1.73;;
6667;SDS011;3370;47.712;9.082;2022-11-02T12:51:56;7.13;;;2.17;;
6667;SDS011;3370;47.712;9.082;2022-11-02T12:54:46;9.13;;;1.97;;
6667;SDS011;3370;47.712;9.082;2022-11-02T12:57:17;9.07;;;2.23;;
6667;SDS011;3370;47.712;9.082;2022-11-02T12:59:47;8.43;;;2.10;;
6667;SDS011;3370;47.712;9.082;2022-11-02T13:02:28;5.33;;;1.60;;
6667;SDS011;3370;47.712;9.082;2022-11-02T13:05:32;15.07;;;2.87;;
6667;SDS011;3370;47.712;9.082;2022-11-02T13:08:19;5.77;;;2.00;;
6667;SDS011;3370;47.712;9.082;2022-11-02T13:11:10;3.80;;;1.50;;
6667;SDS011;3370;47.712;9.082;2022-11-02T13:13:58;7.77;;;1.90;;
6667;SDS011;3370;47.712;9.082;2022-11-02T13:16:40;6.03;;;2.00;;
6667;SDS011;3370;47.712;9.082;2022-11-02T13:19:19;7.80;;;1.60;;
6667;SDS011;3370;47.712;9.082;2022-11-02T13:21:53;5.10;;;1.53;;
6667;SDS011;3370;47.712;9.082;2022-11-02T13:24:22;7.17;;;1.73;;
6667;SDS011;3370;47.712;9.082;2022-11-02T13:26:55;5.60;;;1.50;;
6667;SDS011;3370;47.712;9.082;2022-11-02T13:29:36;5.27;;;1.50;;
6667;SDS011;3370;47.712;9.082;2022-11-02T13:32:21;4.70;;;1.70;;
6667;SDS011;3370;47.712;9.082;2022-11-02T13:35:26;6.87;;;2.00;;
6667;SDS011;3370;47.712;9.082;2022-11-02T13:40:37;6.40;;;1.67;;
6667;SDS011;3370;47.712;9.082;2022-11-02T13:49:04;13.03;;;1.60;;
6667;SDS011;3370;47.712;9.082;2022-11-02T13:51:42;2.90;;;1.57;;
6667;SDS011;3370;47.712;9.082;2022-11-02T13:54:18;5.93;;;1.50;;
6667;SDS011;3370;47.712;9.082;2022-11-02T13:56:51;6.47;;;1.63;;
6667;SDS011;3370;47.712;9.082;2022-11-02T13:59:22;4.53;;;1.60;;
6667;SDS011;3370;47.712;9.082;2022-11-02T14:01:53;7.23;;;2.87;;
6667;SDS011;3370;47.712;9.082;2022-11-02T14:04:21;4.17;;;1.70;;
6667;SDS011;3370;47.712;9.082;2022-11-02T14:07:07;4.30;;;1.60;;
6667;SDS011;3370;47.712;9.082;2022-11-02T14:10:00;8.25;;;1.92;;
6667;SDS011;3370;47.712;9.082;2022-11-02T14:12:41;8.63;;;2.03;;
6667;SDS011;3370;47.712;9.082;2022-11-02T14:20:32;7.40;;;1.97;;
6667;SDS011;3370;47.712;9.082;2022-11-02T14:47:56;6.57;;;1.80;;
6667;SDS011;3370;47.712;9.082;2022-11-02T14:50:26;6.23;;;1.60;;
6667;SDS011;3370;47.712;9.082;2022-11-02T14:52:55;8.77;;;2.43;;
6667;SDS011;3370;47.712;9.082;2022-11-02T14:55:32;7.50;;;2.23;;
6667;SDS011;3370;47.712;9.082;2022-11-02T14:58:02;10.50;;;2.00;;
6667;SDS011;3370;47.712;9.082;2022-11-02T15:03:25;10.40;;;1.97;;
6667;SDS011;3370;47.712;9.082;2022-11-02T15:08:58;6.73;;;1.77;;
6667;SDS011;3370;47.712;9.082;2022-11-02T15:14:57;5.40;;;1.93;;
6667;SDS011;3370;47.712;9.082;2022-11-02T15:26:46;6.37;;;1.83;;
6667;SDS011;3370;47.712;9.082;2022-11-02T15:32:10;6.97;;;1.70;;
6667;SDS011;3370;47.712;9.082;2022-11-02T15:34:43;7.73;;;2.40;;
6667;SDS011;3370;47.712;9.082;2022-11-02T15:37:19;8.33;;;2.27;;
6667;SDS011;3370;47.712;9.082;2022-11-02T15:39:57;6.53;;;1.57;;
6667;SDS011;3370;47.712;9.082;2022-11-02T15:42:47;7.20;;;1.93;;
6667;SDS011;3370;47.712;9.082;2022-11-02T15:51:11;2.30;;;1.67;;
6667;SDS011;3370;47.712;9.082;2022-11-02T16:02:47;16.20;;;2.23;;
6667;SDS011;3370;47.712;9.082;2022-11-02T16:05:24;9.40;;;2.10;;
6667;SDS011;3370;47.712;9.082;2022-11-02T16:07:55;6.23;;;1.77;;
6667;SDS011;3370;47.712;9.082;2022-11-02T16:12:59;4.97;;;1.83;;
6667;SDS011;3370;47.712;9.082;2022-11-02T16:15:37;4.37;;;1.73;;
6667;SDS011;3370;47.712;9.082;2022-11-02T16:18:20;7.57;;;2.00;;
6667;SDS011;3370;47.712;9.082;2022-11-02T16:20:48;3.87;;;1.70;;
6667;SDS011;3370;47.712;9.082;2022-11-02T16:23:16;6.50;;;1.77;;
6667;SDS011;3370;47.712;9.082;2022-11-02T16:25:49;8.30;;;3.13;;
6667;SDS011;3370;47.712;9.082;2022-11-02T16:28:25;7.37;;;2.40;;
6667;SDS011;3370;47.712;9.082;2022-11-02T16:31:35;4.67;;;1.93;;
6667;SDS011;3370;47.712;9.082;2022-11-02T16:33:53;7.17;;;2.13;;
6667;SDS011;3370;47.712;9.082;2022-11-02T16:36:29;4.87;;;1.93;;
6667;SDS011;3370;47.712;9.082;2022-11-02T16:39:03;6.17;;;2.20;;
6667;SDS011;3370;47.712;9.082;2022-11-02T16:41:45;15.43;;;2.77;;
6667;SDS011;3370;47.712;9.082;2022-11-02T16:44:30;8.10;;;2.27;;
6667;SDS011;3370;47.712;9.082;2022-11-02T16:49:24;7.67;;;1.73;;
6667;SDS011;3370;47.712;9.082;2022-11-02T16:51:53;4.73;;;1.80;;
6667;SDS011;3370;47.712;9.082;2022-11-02T16:57:15;3.40;;;1.30;;
6667;SDS011;3370;47.712;9.082;2022-11-02T17:00:05;3.40;;;1.60;;
6667;SDS011;3370;47.712;9.082;2022-11-02T17:02:42;6.10;;;2.10;;
6667;SDS011;3370;47.712;9.082;2022-11-02T17:05:13;7.53;;;1.80;;
6667;SDS011;3370;47.712;9.082;2022-11-02T17:08:03;3.33;;;1.70;;
6667;SDS011;3370;47.712;9.082;2022-11-02T17:10:45;11.23;;;1.77;;
6667;SDS011;3370;47.712;9.082;2022-11-02T17:13:12;5.37;;;1.67;;
6667;SDS011;3370;47.712;9.082;2022-11-02T17:15:44;4.00;;;1.90;;
6667;SDS011;3370;47.712;9.082;2022-11-02T17:18:22;4.77;;;2.03;;
6667;SDS011;3370;47.712;9.082;2022-11-02T17:23:38;6.77;;;1.77;;
6667;SDS011;3370;47.712;9.082;2022-11-02T17:28:48;6.60;;;2.07;;
6667;SDS011;3370;47.712;9.082;2022-11-02T17:31:54;10.97;;;2.60;;
6667;SDS011;3370;47.712;9.082;2022-11-02T17:34:24;13.40;;;2.80;;
6667;SDS011;3370;47.712;9.082;2022-11-02T17:36:50;7.33;;;2.57;;
6667;SDS011;3370;47.712;9.082;2022-11-02T17:39:19;8.23;;;3.03;;
6667;SDS011;3370;47.712;9.082;2022-11-02T17:41:45;5.03;;;2.30;;
6667;SDS011;3370;47.712;9.082;2022-11-02T17:44:39;5.03;;;2.43;;
6667;SDS011;3370;47.712;9.082;2022-11-02T17:47:09;10.40;;;3.97;;
6667;SDS011;3370;47.712;9.082;2022-11-02T17:49:37;11.83;;;2.90;;
6667;SDS011;3370;47.712;9.082;2022-11-02T17:52:03;7.43;;;2.60;;
6667;SDS011;3370;47.712;9.082;2022-11-02T17:54:29;5.17;;;2.17;;
6667;SDS011;3370;47.712;9.082;2022-11-02T17:56:55;9.97;;;2.50;;
6667;SDS011;3370;47.712;9.082;2022-11-02T17:59:21;6.13;;;2.77;;
6667;SDS011;3370;47.712;9.082;2022-11-02T18:01:47;9.63;;;2.80;;
6667;SDS011;3370;47.712;9.082;2022-11-02T18:04:13;6.60;;;2.60;;
6667;SDS011;3370;47.712;9.082;2022-11-02T18:06:39;7.63;;;2.73;;
6667;SDS011;3370;47.712;9.082;2022-11-02T18:09:05;7.40;;;3.30;;
6667;SDS011;3370;47.712;9.082;2022-11-02T18:11:38;8.53;;;4.00;;
6667;SDS011;3370;47.712;9.082;2022-11-02T18:14:05;12.47;;;2.90;;
6667;SDS011;3370;47.712;9.082;2022-11-02T18:16:36;5.60;;;3.10;;
6667;SDS011;3370;47.712;9.082;2022-11-02T18:19:02;8.43;;;2.73;;
6667;SDS011;3370;47.712;9.082;2022-11-02T18:21:28;4.90;;;2.87;;
6667;SDS011;3370;47.712;9.082;2022-11-02T18:23:54;9.27;;;3.63;;
6667;SDS011;3370;47.712;9.082;2022-11-02T18:26:20;7.03;;;3.07;;
6667;SDS011;3370;47.712;9.082;2022-11-02T18:28:46;13.73;;;3.97;;
6667;SDS011;3370;47.712;9.082;2022-11-02T18:31:11;6.43;;;3.57;;
6667;SDS011;3370;47.712;9.082;2022-11-02T18:33:37;11.80;;;3.23;;
6667;SDS011;3370;47.712;9.082;2022-11-02T18:36:07;5.63;;;2.57;;
6667;SDS011;3370;47.712;9.082;2022-11-02T18:38:35;5.40;;;3.00;;
6667;SDS011;3370;47.712;9.082;2022-11-02T18:41:04;8.73;;;4.50;;
6667;SDS011;3370;47.712;9.082;2022-11-02T18:43:58;6.00;;;3.97;;
6667;SDS011;3370;47.712;9.082;2022-11-02T18:46:31;12.90;;;4.07;;
6667;SDS011;3370;47.712;9.082;2022-11-02T18:48:58;6.40;;;3.10;;
6667;SDS011;3370;47.712;9.082;2022-11-02T18:51:24;6.73;;;3.00;;
6667;SDS011;3370;47.712;9.082;2022-11-02T18:54:01;8.20;;;3.73;;